sensor_id;sensor_type;location;lat;lon;timestamp;P1;durP1;ratioP1;P2;durP2;ratioP2
31638;SDS011;18248;51.522;7.020;2023-08-06T00:01:54;6.63;;;3.53;;
31638;SDS011;18248;51.522;7.020;2023-08-06T00:04:52;4.88;;;3.53;;
31638;SDS011;18248;51.522;7.020;2023-08-06T00:07:51;5.32;;;4.03;;
31638;SDS011;18248;51.522;7.020;2023-08-06T00:10:49;4.47;;;3.50;;
31638;SDS011;18248;51.522;7.020;2023-08-06T00:13:48;4.45;;;3.50;;
31638;SDS011;18248;51.522;7.020;2023-08-06T00:16:46;4.20;;;3.20;;
31638;SDS011;18248;51.522;7.020;2023-08-06T00:19:45;7.38;;;3.28;;
31638;SDS011;18248;51.522;7.020;2023-08-06T00:22:43;6.57;;;3.63;;
31638;SDS011;18248;51.522;7.020;2023-08-06T00:25:42;4.78;;;3.28;;
31638;SDS011;18248;51.522;7.020;2023-08-06T00:28:40;4.15;;;3.05;;
31638;SDS011;18248;51.522;7.020;2023-08-06T00:31:39;10.52;;;3.70;;
31638;SDS011;18248;51.522;7.020;2023-08-06T00:34:38;3.53;;;3.00;;
31638;SDS011;18248;51.522;7.020;2023-08-06T00:37:36;7.88;;;3.83;;
31638;SDS011;18248;51.522;7.020;2023-08-06T00:40:35;7.22;;;3.80;;
31638;SDS011;18248;51.522;7.020;2023-08-06T00:43:33;4.50;;;3.55;;
31638;SDS011;18248;51.522;7.020;2023-08-06T00:46:33;4.85;;;2.90;;
31638;SDS011;18248;51.522;7.020;2023-08-06T00:49:32;9.75;;;3.95;;
31638;SDS011;18248;51.522;7.020;2023-08-06T00:52:34;6.47;;;3.33;;
31638;SDS011;18248;51.522;7.020;2023-08-06T00:55:35;7.10;;;3.95;;
31638;SDS011;18248;51.522;7.020;2023-08-06T00:58:34;5.63;;;3.13;;
31638;SDS011;18248;51.522;7.020;2023-08-06T01:01:34;6.68;;;3.25;;
31638;SDS011;18248;51.522;7.020;2023-08-06T01:04:32;4.95;;;2.97;;
31638;SDS011;18248;51.522;7.020;2023-08-06T01:07:48;8.32;;;3.15;;
31638;SDS011;18248;51.522;7.020;2023-08-06T01:17:45;5.38;;;2.83;;
31638;SDS011;18248;51.522;7.020;2023-08-06T01:20:45;3.17;;;2.78;;
31638;SDS011;18248;51.522;7.020;2023-08-06T01:23:44;13.00;;;3.22;;
31638;SDS011;18248;51.522;7.020;2023-08-06T01:30:01;6.23;;;3.30;;
31638;SDS011;18248;51.522;7.020;2023-08-06T01:33:04;4.68;;;3.42;;
31638;SDS011;18248;51.522;7.020;2023-08-06T01:36:06;5.97;;;3.30;;
31638;SDS011;18248;51.522;7.020;2023-08-06T01:39:05;7.50;;;3.20;;
31638;SDS011;18248;51.522;7.020;2023-08-06T01:42:05;5.72;;;3.40;;
31638;SDS011;18248;51.522;7.020;2023-08-06T01:45:08;5.38;;;3.00;;
31638;SDS011;18248;51.522;7.020;2023-08-06T01:48:07;7.15;;;3.20;;
31638;SDS011;18248;51.522;7.020;2023-08-06T01:51:06;4.35;;;2.70;;
31638;SDS011;18248;51.522;7.020;2023-08-06T01:54:05;5.80;;;3.08;;
31638;SDS011;18248;51.522;7.020;2023-08-06T01:57:05;3.42;;;2.70;;
31638;SDS011;18248;51.522;7.020;2023-08-06T02:00:03;3.72;;;2.90;;
31638;SDS011;18248;51.522;7.020;2023-08-06T02:03:02;8.02;;;2.90;;
31638;SDS011;18248;51.522;7.020;2023-08-06T02:06:01;8.23;;;3.17;;
31638;SDS011;18248;51.522;7.020;2023-08-06T02:09:00;5.10;;;2.80;;
31638;SDS011;18248;51.522;7.020;2023-08-06T02:11:58;4.47;;;3.08;;
31638;SDS011;18248;51.522;7.020;2023-08-06T02:14:57;5.65;;;3.30;;
31638;SDS011;18248;51.522;7.020;2023-08-06T02:17:55;4.32;;;3.05;;
31638;SDS011;18248;51.522;7.020;2023-08-06T02:20:54;6.53;;;3.45;;
31638;SDS011;18248;51.522;7.020;2023-08-06T02:23:55;7.95;;;3.53;;
31638;SDS011;18248;51.522;7.020;2023-08-06T02:26:53;5.82;;;3.25;;
31638;SDS011;18248;51.522;7.020;2023-08-06T02:29:54;4.35;;;2.80;;
31638;SDS011;18248;51.522;7.020;2023-08-06T02:32:52;4.38;;;2.75;;
31638;SDS011;18248;51.522;7.020;2023-08-06T02:35:51;5.45;;;2.90;;
31638;SDS011;18248;51.522;7.020;2023-08-06T02:38:56;6.22;;;3.10;;
31638;SDS011;18248;51.522;7.020;2023-08-06T02:41:54;7.22;;;2.92;;
31638;SDS011;18248;51.522;7.020;2023-08-06T02:44:53;7.47;;;2.88;;
31638;SDS011;18248;51.522;7.020;2023-08-06T02:47:54;6.82;;;3.67;;
31638;SDS011;18248;51.522;7.020;2023-08-06T02:50:53;4.18;;;3.00;;
31638;SDS011;18248;51.522;7.020;2023-08-06T02:53:55;4.13;;;2.88;;
31638;SDS011;18248;51.522;7.020;2023-08-06T02:56:54;8.52;;;2.60;;
31638;SDS011;18248;51.522;7.020;2023-08-06T02:59:54;5.72;;;3.13;;
31638;SDS011;18248;51.522;7.020;2023-08-06T03:02:54;9.27;;;3.33;;
31638;SDS011;18248;51.522;7.020;2023-08-06T03:05:53;3.35;;;2.60;;
31638;SDS011;18248;51.522;7.020;2023-08-06T03:08:52;4.22;;;2.30;;
31638;SDS011;18248;51.522;7.020;2023-08-06T03:11:52;4.28;;;2.63;;
31638;SDS011;18248;51.522;7.020;2023-08-06T03:14:52;4.85;;;2.70;;
31638;SDS011;18248;51.522;7.020;2023-08-06T03:17:52;6.50;;;2.63;;
31638;SDS011;18248;51.522;7.020;2023-08-06T03:20:54;4.22;;;2.42;;
31638;SDS011;18248;51.522;7.020;2023-08-06T03:23:55;5.15;;;2.83;;
31638;SDS011;18248;51.522;7.020;2023-08-06T03:26:53;5.18;;;2.90;;
31638;SDS011;18248;51.522;7.020;2023-08-06T03:29:52;5.72;;;3.22;;
31638;SDS011;18248;51.522;7.020;2023-08-06T03:32:50;5.70;;;3.15;;
31638;SDS011;18248;51.522;7.020;2023-08-06T03:35:49;4.00;;;2.83;;
31638;SDS011;18248;51.522;7.020;2023-08-06T03:38:47;6.22;;;3.53;;
31638;SDS011;18248;51.522;7.020;2023-08-06T03:41:46;3.70;;;2.30;;
31638;SDS011;18248;51.522;7.020;2023-08-06T03:44:44;5.63;;;2.55;;
31638;SDS011;18248;51.522;7.020;2023-08-06T03:47:43;5.53;;;3.38;;
31638;SDS011;18248;51.522;7.020;2023-08-06T03:50:41;3.78;;;2.53;;
31638;SDS011;18248;51.522;7.020;2023-08-06T03:53:40;4.03;;;2.40;;
31638;SDS011;18248;51.522;7.020;2023-08-06T03:56:39;4.15;;;2.78;;
31638;SDS011;18248;51.522;7.020;2023-08-06T03:59:37;3.80;;;2.70;;
31638;SDS011;18248;51.522;7.020;2023-08-06T04:02:36;4.53;;;3.00;;
31638;SDS011;18248;51.522;7.020;2023-08-06T04:05:34;6.40;;;2.85;;
31638;SDS011;18248;51.522;7.020;2023-08-06T04:08:33;4.47;;;2.97;;
31638;SDS011;18248;51.522;7.020;2023-08-06T04:11:31;7.43;;;2.90;;
31638;SDS011;18248;51.522;7.020;2023-08-06T04:14:30;4.85;;;2.80;;
31638;SDS011;18248;51.522;7.020;2023-08-06T04:17:28;5.80;;;2.60;;
31638;SDS011;18248;51.522;7.020;2023-08-06T04:20:27;5.07;;;2.58;;
31638;SDS011;18248;51.522;7.020;2023-08-06T04:23:25;4.07;;;2.65;;
31638;SDS011;18248;51.522;7.020;2023-08-06T04:26:25;4.85;;;2.92;;
31638;SDS011;18248;51.522;7.020;2023-08-06T04:29:24;3.90;;;3.15;;
31638;SDS011;18248;51.522;7.020;2023-08-06T04:32:22;6.35;;;3.35;;
31638;SDS011;18248;51.522;7.020;2023-08-06T04:35:22;6.65;;;3.17;;
31638;SDS011;18248;51.522;7.020;2023-08-06T04:38:22;8.27;;;2.88;;
31638;SDS011;18248;51.522;7.020;2023-08-06T04:41:23;4.13;;;2.40;;
31638;SDS011;18248;51.522;7.020;2023-08-06T04:44:21;4.10;;;3.25;;
31638;SDS011;18248;51.522;7.020;2023-08-06T04:47:20;4.50;;;2.85;;
31638;SDS011;18248;51.522;7.020;2023-08-06T04:50:21;5.53;;;3.15;;
31638;SDS011;18248;51.522;7.020;2023-08-06T04:53:20;4.35;;;2.75;;
31638;SDS011;18248;51.522;7.020;2023-08-06T04:56:18;4.72;;;2.83;;
31638;SDS011;18248;51.522;7.020;2023-08-06T04:59:17;4.05;;;2.88;;
31638;SDS011;18248;51.522;7.020;2023-08-06T05:02:17;7.85;;;4.05;;
31638;SDS011;18248;51.522;7.020;2023-08-06T05:05:15;6.85;;;3.30;;
31638;SDS011;18248;51.522;7.020;2023-08-06T05:08:14;8.93;;;3.08;;
31638;SDS011;18248;51.522;7.020;2023-08-06T05:11:16;4.13;;;2.78;;
31638;SDS011;18248;51.522;7.020;2023-08-06T05:14:15;4.38;;;2.25;;
31638;SDS011;18248;51.522;7.020;2023-08-06T05:17:13;5.35;;;2.47;;
31638;SDS011;18248;51.522;7.020;2023-08-06T05:20:12;6.63;;;2.92;;
31638;SDS011;18248;51.522;7.020;2023-08-06T05:23:11;7.35;;;2.75;;
31638;SDS011;18248;51.522;7.020;2023-08-06T05:26:10;5.43;;;2.63;;
31638;SDS011;18248;51.522;7.020;2023-08-06T05:29:08;5.70;;;3.08;;
31638;SDS011;18248;51.522;7.020;2023-08-06T05:32:07;9.98;;;6.15;;
31638;SDS011;18248;51.522;7.020;2023-08-06T05:35:07;8.35;;;4.35;;
31638;SDS011;18248;51.522;7.020;2023-08-06T05:38:05;6.90;;;3.50;;
31638;SDS011;18248;51.522;7.020;2023-08-06T05:41:06;4.05;;;2.55;;
31638;SDS011;18248;51.522;7.020;2023-08-06T05:44:04;5.40;;;2.88;;
31638;SDS011;18248;51.522;7.020;2023-08-06T05:47:04;4.35;;;2.70;;
31638;SDS011;18248;51.522;7.020;2023-08-06T05:50:04;4.00;;;2.42;;
31638;SDS011;18248;51.522;7.020;2023-08-06T05:53:03;5.57;;;2.38;;
31638;SDS011;18248;51.522;7.020;2023-08-06T05:56:01;10.55;;;3.00;;
31638;SDS011;18248;51.522;7.020;2023-08-06T05:59:00;3.85;;;2.13;;
31638;SDS011;18248;51.522;7.020;2023-08-06T06:01:58;4.53;;;2.13;;
31638;SDS011;18248;51.522;7.020;2023-08-06T06:04:57;6.72;;;2.55;;
31638;SDS011;18248;51.522;7.020;2023-08-06T06:07:55;5.40;;;2.70;;
31638;SDS011;18248;51.522;7.020;2023-08-06T06:10:54;5.25;;;2.00;;
31638;SDS011;18248;51.522;7.020;2023-08-06T06:13:52;2.28;;;1.80;;
31638;SDS011;18248;51.522;7.020;2023-08-06T06:16:51;6.20;;;2.45;;
31638;SDS011;18248;51.522;7.020;2023-08-06T06:19:51;3.58;;;2.03;;
31638;SDS011;18248;51.522;7.020;2023-08-06T06:22:50;4.35;;;2.20;;
31638;SDS011;18248;51.522;7.020;2023-08-06T06:25:50;3.33;;;2.50;;
31638;SDS011;18248;51.522;7.020;2023-08-06T06:28:49;8.90;;;2.50;;
31638;SDS011;18248;51.522;7.020;2023-08-06T06:31:48;2.60;;;2.15;;
31638;SDS011;18248;51.522;7.020;2023-08-06T06:34:46;2.88;;;2.15;;
31638;SDS011;18248;51.522;7.020;2023-08-06T06:37:45;6.32;;;2.55;;
31638;SDS011;18248;51.522;7.020;2023-08-06T06:40:43;5.68;;;2.20;;
31638;SDS011;18248;51.522;7.020;2023-08-06T06:43:51;5.95;;;2.67;;
31638;SDS011;18248;51.522;7.020;2023-08-06T06:46:49;2.45;;;1.90;;
31638;SDS011;18248;51.522;7.020;2023-08-06T06:49:48;3.15;;;1.90;;
31638;SDS011;18248;51.522;7.020;2023-08-06T06:52:46;3.42;;;2.10;;
31638;SDS011;18248;51.522;7.020;2023-08-06T06:55:45;4.30;;;2.00;;
31638;SDS011;18248;51.522;7.020;2023-08-06T06:58:47;7.32;;;2.08;;
31638;SDS011;18248;51.522;7.020;2023-08-06T07:01:45;5.60;;;1.88;;
31638;SDS011;18248;51.522;7.020;2023-08-06T07:04:44;3.40;;;1.80;;
31638;SDS011;18248;51.522;7.020;2023-08-06T07:07:42;3.60;;;2.03;;
31638;SDS011;18248;51.522;7.020;2023-08-06T07:10:41;7.40;;;2.08;;
31638;SDS011;18248;51.522;7.020;2023-08-06T07:13:40;6.75;;;2.45;;
31638;SDS011;18248;51.522;7.020;2023-08-06T07:16:39;5.05;;;1.63;;
31638;SDS011;18248;51.522;7.020;2023-08-06T07:19:38;3.67;;;1.88;;
31638;SDS011;18248;51.522;7.020;2023-08-06T07:22:36;6.70;;;2.55;;
31638;SDS011;18248;51.522;7.020;2023-08-06T07:25:36;3.47;;;1.50;;
31638;SDS011;18248;51.522;7.020;2023-08-06T07:28:35;3.38;;;1.88;;
31638;SDS011;18248;51.522;7.020;2023-08-06T07:31:33;5.50;;;1.85;;
31638;SDS011;18248;51.522;7.020;2023-08-06T07:34:32;6.03;;;2.08;;
31638;SDS011;18248;51.522;7.020;2023-08-06T07:37:31;4.50;;;2.03;;
31638;SDS011;18248;51.522;7.020;2023-08-06T07:40:30;2.15;;;1.67;;
31638;SDS011;18248;51.522;7.020;2023-08-06T07:43:29;3.95;;;1.92;;
31638;SDS011;18248;51.522;7.020;2023-08-06T07:46:27;6.13;;;1.83;;
31638;SDS011;18248;51.522;7.020;2023-08-06T07:49:26;3.70;;;1.80;;
31638;SDS011;18248;51.522;7.020;2023-08-06T07:52:25;3.72;;;1.70;;
31638;SDS011;18248;51.522;7.020;2023-08-06T07:55:23;5.72;;;1.90;;
31638;SDS011;18248;51.522;7.020;2023-08-06T07:58:23;8.38;;;2.47;;
31638;SDS011;18248;51.522;7.020;2023-08-06T08:01:24;2.92;;;1.77;;
31638;SDS011;18248;51.522;7.020;2023-08-06T08:04:23;2.78;;;1.52;;
31638;SDS011;18248;51.522;7.020;2023-08-06T08:07:22;3.30;;;1.75;;
31638;SDS011;18248;51.522;7.020;2023-08-06T08:10:20;6.68;;;1.98;;
31638;SDS011;18248;51.522;7.020;2023-08-06T08:13:19;4.88;;;1.80;;
31638;SDS011;18248;51.522;7.020;2023-08-06T08:16:19;5.03;;;1.88;;
31638;SDS011;18248;51.522;7.020;2023-08-06T08:19:17;3.42;;;1.92;;
31638;SDS011;18248;51.522;7.020;2023-08-06T08:22:16;5.90;;;1.95;;
31638;SDS011;18248;51.522;7.020;2023-08-06T08:25:15;4.80;;;1.90;;
31638;SDS011;18248;51.522;7.020;2023-08-06T08:28:14;4.15;;;1.90;;
31638;SDS011;18248;51.522;7.020;2023-08-06T08:31:12;3.35;;;1.80;;
31638;SDS011;18248;51.522;7.020;2023-08-06T08:34:11;5.22;;;1.88;;
31638;SDS011;18248;51.522;7.020;2023-08-06T08:37:09;5.43;;;1.90;;
31638;SDS011;18248;51.522;7.020;2023-08-06T08:40:08;3.28;;;1.65;;
31638;SDS011;18248;51.522;7.020;2023-08-06T08:43:09;5.10;;;1.55;;
31638;SDS011;18248;51.522;7.020;2023-08-06T08:46:09;2.35;;;1.48;;
31638;SDS011;18248;51.522;7.020;2023-08-06T08:49:10;6.72;;;1.58;;
31638;SDS011;18248;51.522;7.020;2023-08-06T08:52:09;5.10;;;1.58;;
31638;SDS011;18248;51.522;7.020;2023-08-06T08:55:11;3.95;;;1.90;;
31638;SDS011;18248;51.522;7.020;2023-08-06T08:58:11;4.35;;;1.90;;
31638;SDS011;18248;51.522;7.020;2023-08-06T09:01:12;6.63;;;1.83;;
31638;SDS011;18248;51.522;7.020;2023-08-06T09:04:11;3.30;;;1.50;;
31638;SDS011;18248;51.522;7.020;2023-08-06T09:07:11;4.85;;;1.65;;
31638;SDS011;18248;51.522;7.020;2023-08-06T09:10:16;4.32;;;2.22;;
31638;SDS011;18248;51.522;7.020;2023-08-06T09:13:19;3.30;;;1.60;;
31638;SDS011;18248;51.522;7.020;2023-08-06T09:16:19;3.08;;;1.50;;
31638;SDS011;18248;51.522;7.020;2023-08-06T09:19:17;2.55;;;1.65;;
31638;SDS011;18248;51.522;7.020;2023-08-06T09:22:16;5.85;;;1.83;;
31638;SDS011;18248;51.522;7.020;2023-08-06T09:25:24;3.58;;;1.88;;
31638;SDS011;18248;51.522;7.020;2023-08-06T09:28:24;3.63;;;2.00;;
31638;SDS011;18248;51.522;7.020;2023-08-06T09:31:23;3.17;;;2.00;;
31638;SDS011;18248;51.522;7.020;2023-08-06T09:34:22;4.00;;;1.95;;
31638;SDS011;18248;51.522;7.020;2023-08-06T09:37:21;2.97;;;1.85;;
31638;SDS011;18248;51.522;7.020;2023-08-06T09:40:30;2.50;;;1.70;;
31638;SDS011;18248;51.522;7.020;2023-08-06T09:43:29;4.63;;;2.10;;
31638;SDS011;18248;51.522;7.020;2023-08-06T09:46:28;4.28;;;2.13;;
31638;SDS011;18248;51.522;7.020;2023-08-06T09:52:30;4.80;;;1.92;;
31638;SDS011;18248;51.522;7.020;2023-08-06T09:55:29;3.80;;;1.88;;
31638;SDS011;18248;51.522;7.020;2023-08-06T09:58:29;4.32;;;2.30;;
31638;SDS011;18248;51.522;7.020;2023-08-06T10:01:30;4.88;;;2.17;;
31638;SDS011;18248;51.522;7.020;2023-08-06T10:04:30;3.83;;;2.05;;
31638;SDS011;18248;51.522;7.020;2023-08-06T10:07:29;5.20;;;2.00;;
31638;SDS011;18248;51.522;7.020;2023-08-06T10:10:28;3.38;;;1.98;;
31638;SDS011;18248;51.522;7.020;2023-08-06T10:13:28;3.75;;;2.08;;
31638;SDS011;18248;51.522;7.020;2023-08-06T10:16:27;6.60;;;3.40;;
31638;SDS011;18248;51.522;7.020;2023-08-06T10:19:26;10.27;;;3.53;;
31638;SDS011;18248;51.522;7.020;2023-08-06T10:22:27;4.57;;;3.35;;
31638;SDS011;18248;51.522;7.020;2023-08-06T10:25:25;5.35;;;3.85;;
31638;SDS011;18248;51.522;7.020;2023-08-06T10:28:24;6.85;;;3.42;;
31638;SDS011;18248;51.522;7.020;2023-08-06T10:34:58;4.65;;;3.45;;
31638;SDS011;18248;51.522;7.020;2023-08-06T10:37:58;5.57;;;3.78;;
31638;SDS011;18248;51.522;7.020;2023-08-06T10:41:23;8.27;;;4.05;;
31638;SDS011;18248;51.522;7.020;2023-08-06T10:44:26;6.57;;;3.47;;
31638;SDS011;18248;51.522;7.020;2023-08-06T10:47:25;8.32;;;4.32;;
31638;SDS011;18248;51.522;7.020;2023-08-06T10:50:24;6.97;;;5.00;;
31638;SDS011;18248;51.522;7.020;2023-08-06T10:53:24;5.03;;;4.50;;
31638;SDS011;18248;51.522;7.020;2023-08-06T10:56:23;4.60;;;3.80;;
31638;SDS011;18248;51.522;7.020;2023-08-06T10:59:24;5.57;;;4.50;;
31638;SDS011;18248;51.522;7.020;2023-08-06T11:02:22;5.10;;;4.13;;
31638;SDS011;18248;51.522;7.020;2023-08-06T11:05:21;7.35;;;4.13;;
31638;SDS011;18248;51.522;7.020;2023-08-06T11:08:24;9.25;;;5.28;;
31638;SDS011;18248;51.522;7.020;2023-08-06T11:11:26;7.70;;;5.63;;
31638;SDS011;18248;51.522;7.020;2023-08-06T11:14:25;7.53;;;5.47;;
31638;SDS011;18248;51.522;7.020;2023-08-06T11:17:23;6.07;;;4.32;;
31638;SDS011;18248;51.522;7.020;2023-08-06T11:20:22;6.05;;;5.45;;
31638;SDS011;18248;51.522;7.020;2023-08-06T11:23:25;7.28;;;6.43;;
31638;SDS011;18248;51.522;7.020;2023-08-06T11:26:27;8.70;;;7.43;;
31638;SDS011;18248;51.522;7.020;2023-08-06T11:29:26;13.80;;;7.10;;
31638;SDS011;18248;51.522;7.020;2023-08-06T11:32:25;10.20;;;8.95;;
31638;SDS011;18248;51.522;7.020;2023-08-06T11:35:25;13.20;;;10.10;;
31638;SDS011;18248;51.522;7.020;2023-08-06T11:38:27;11.85;;;8.80;;
31638;SDS011;18248;51.522;7.020;2023-08-06T11:41:29;10.47;;;8.47;;
31638;SDS011;18248;51.522;7.020;2023-08-06T11:44:32;12.05;;;9.57;;
31638;SDS011;18248;51.522;7.020;2023-08-06T11:47:34;12.98;;;7.13;;
31638;SDS011;18248;51.522;7.020;2023-08-06T11:50:38;8.02;;;5.45;;
31638;SDS011;18248;51.522;7.020;2023-08-06T11:53:36;6.50;;;4.82;;
31638;SDS011;18248;51.522;7.020;2023-08-06T11:56:35;8.00;;;4.68;;
31638;SDS011;18248;51.522;7.020;2023-08-06T11:59:34;6.32;;;3.50;;
31638;SDS011;18248;51.522;7.020;2023-08-06T12:02:32;5.55;;;2.92;;
31638;SDS011;18248;51.522;7.020;2023-08-06T12:05:32;6.43;;;3.03;;
31638;SDS011;18248;51.522;7.020;2023-08-06T12:08:31;7.20;;;3.00;;
31638;SDS011;18248;51.522;7.020;2023-08-06T12:11:29;5.68;;;3.90;;
31638;SDS011;18248;51.522;7.020;2023-08-06T12:14:28;4.03;;;3.10;;
31638;SDS011;18248;51.522;7.020;2023-08-06T12:17:26;5.13;;;3.58;;
31638;SDS011;18248;51.522;7.020;2023-08-06T12:20:25;4.07;;;3.13;;
31638;SDS011;18248;51.522;7.020;2023-08-06T12:23:24;4.85;;;2.85;;
31638;SDS011;18248;51.522;7.020;2023-08-06T12:26:23;4.07;;;2.10;;
31638;SDS011;18248;51.522;7.020;2023-08-06T12:29:21;4.70;;;1.80;;
31638;SDS011;18248;51.522;7.020;2023-08-06T12:32:20;4.15;;;1.50;;
31638;SDS011;18248;51.522;7.020;2023-08-06T12:35:19;1.52;;;0.77;;
31638;SDS011;18248;51.522;7.020;2023-08-06T12:38:18;1.92;;;0.55;;
31638;SDS011;18248;51.522;7.020;2023-08-06T12:41:18;1.00;;;0.80;;
31638;SDS011;18248;51.522;7.020;2023-08-06T12:44:17;2.00;;;0.63;;
31638;SDS011;18248;51.522;7.020;2023-08-06T12:47:16;3.13;;;0.93;;
31638;SDS011;18248;51.522;7.020;2023-08-06T12:50:15;1.35;;;0.65;;
31638;SDS011;18248;51.522;7.020;2023-08-06T12:53:15;1.02;;;0.80;;
31638;SDS011;18248;51.522;7.020;2023-08-06T12:56:13;1.10;;;0.65;;
31638;SDS011;18248;51.522;7.020;2023-08-06T12:59:13;1.15;;;0.70;;
31638;SDS011;18248;51.522;7.020;2023-08-06T13:02:12;1.83;;;0.60;;
31638;SDS011;18248;51.522;7.020;2023-08-06T13:05:11;5.00;;;0.88;;
31638;SDS011;18248;51.522;7.020;2023-08-06T13:08:10;6.07;;;0.60;;
31638;SDS011;18248;51.522;7.020;2023-08-06T13:11:08;2.17;;;0.57;;
31638;SDS011;18248;51.522;7.020;2023-08-06T13:14:08;0.82;;;0.40;;
31638;SDS011;18248;51.522;7.020;2023-08-06T13:17:08;1.30;;;0.60;;
31638;SDS011;18248;51.522;7.020;2023-08-06T13:20:08;3.30;;;0.50;;
31638;SDS011;18248;51.522;7.020;2023-08-06T13:23:06;0.68;;;0.47;;
31638;SDS011;18248;51.522;7.020;2023-08-06T13:26:05;0.77;;;0.57;;
31638;SDS011;18248;51.522;7.020;2023-08-06T13:29:03;1.55;;;0.65;;
31638;SDS011;18248;51.522;7.020;2023-08-06T13:32:02;1.00;;;0.60;;
31638;SDS011;18248;51.522;7.020;2023-08-06T13:35:01;0.88;;;0.70;;
31638;SDS011;18248;51.522;7.020;2023-08-06T13:38:00;0.85;;;0.70;;
31638;SDS011;18248;51.522;7.020;2023-08-06T13:41:00;2.30;;;1.08;;
31638;SDS011;18248;51.522;7.020;2023-08-06T13:44:00;1.20;;;0.68;;
31638;SDS011;18248;51.522;7.020;2023-08-06T13:46:58;1.67;;;1.02;;
31638;SDS011;18248;51.522;7.020;2023-08-06T13:49:57;2.80;;;1.70;;
31638;SDS011;18248;51.522;7.020;2023-08-06T13:52:55;2.72;;;1.48;;
31638;SDS011;18248;51.522;7.020;2023-08-06T13:55:54;3.63;;;1.50;;
31638;SDS011;18248;51.522;7.020;2023-08-06T13:58:52;1.23;;;1.00;;
31638;SDS011;18248;51.522;7.020;2023-08-06T14:01:51;1.95;;;1.25;;
31638;SDS011;18248;51.522;7.020;2023-08-06T14:04:52;1.77;;;1.50;;
31638;SDS011;18248;51.522;7.020;2023-08-06T14:07:51;2.05;;;1.30;;
31638;SDS011;18248;51.522;7.020;2023-08-06T14:10:51;2.38;;;1.75;;
31638;SDS011;18248;51.522;7.020;2023-08-06T14:13:50;2.33;;;1.60;;
31638;SDS011;18248;51.522;7.020;2023-08-06T14:16:52;2.42;;;1.75;;
31638;SDS011;18248;51.522;7.020;2023-08-06T14:19:52;4.25;;;1.92;;
31638;SDS011;18248;51.522;7.020;2023-08-06T14:22:50;3.38;;;1.52;;
31638;SDS011;18248;51.522;7.020;2023-08-06T14:25:49;3.17;;;1.75;;
31638;SDS011;18248;51.522;7.020;2023-08-06T14:28:48;2.40;;;1.63;;
31638;SDS011;18248;51.522;7.020;2023-08-06T14:31:46;3.15;;;1.63;;
31638;SDS011;18248;51.522;7.020;2023-08-06T14:34:45;2.83;;;1.95;;
31638;SDS011;18248;51.522;7.020;2023-08-06T14:37:43;4.10;;;2.00;;
31638;SDS011;18248;51.522;7.020;2023-08-06T14:40:43;2.70;;;1.80;;
31638;SDS011;18248;51.522;7.020;2023-08-06T14:43:42;2.90;;;2.03;;
31638;SDS011;18248;51.522;7.020;2023-08-06T14:46:40;4.88;;;2.30;;
31638;SDS011;18248;51.522;7.020;2023-08-06T14:49:39;5.28;;;2.40;;
31638;SDS011;18248;51.522;7.020;2023-08-06T14:52:37;4.85;;;2.30;;
31638;SDS011;18248;51.522;7.020;2023-08-06T14:55:36;4.20;;;2.10;;
31638;SDS011;18248;51.522;7.020;2023-08-06T14:58:35;3.13;;;2.22;;
31638;SDS011;18248;51.522;7.020;2023-08-06T15:01:33;3.17;;;2.30;;
31638;SDS011;18248;51.522;7.020;2023-08-06T15:04:35;6.45;;;2.30;;
31638;SDS011;18248;51.522;7.020;2023-08-06T15:07:33;3.55;;;2.15;;
31638;SDS011;18248;51.522;7.020;2023-08-06T15:10:33;4.85;;;2.53;;
31638;SDS011;18248;51.522;7.020;2023-08-06T15:13:31;5.03;;;2.88;;
31638;SDS011;18248;51.522;7.020;2023-08-06T15:16:30;3.15;;;1.85;;
31638;SDS011;18248;51.522;7.020;2023-08-06T15:19:29;7.55;;;2.63;;
31638;SDS011;18248;51.522;7.020;2023-08-06T15:22:27;4.47;;;2.13;;
31638;SDS011;18248;51.522;7.020;2023-08-06T15:25:27;5.10;;;2.40;;
31638;SDS011;18248;51.522;7.020;2023-08-06T15:28:25;4.03;;;2.40;;
31638;SDS011;18248;51.522;7.020;2023-08-06T15:31:24;3.20;;;2.17;;
31638;SDS011;18248;51.522;7.020;2023-08-06T15:34:34;5.47;;;2.15;;
31638;SDS011;18248;51.522;7.020;2023-08-06T15:37:33;3.35;;;1.80;;
31638;SDS011;18248;51.522;7.020;2023-08-06T15:40:31;3.90;;;1.90;;
31638;SDS011;18248;51.522;7.020;2023-08-06T15:43:30;3.83;;;2.00;;
31638;SDS011;18248;51.522;7.020;2023-08-06T15:46:28;4.45;;;2.30;;
31638;SDS011;18248;51.522;7.020;2023-08-06T15:49:27;5.65;;;2.45;;
31638;SDS011;18248;51.522;7.020;2023-08-06T15:52:25;5.07;;;2.28;;
31638;SDS011;18248;51.522;7.020;2023-08-06T15:55:24;4.38;;;1.92;;
31638;SDS011;18248;51.522;7.020;2023-08-06T15:58:23;4.82;;;2.08;;
31638;SDS011;18248;51.522;7.020;2023-08-06T16:01:22;4.75;;;1.67;;
31638;SDS011;18248;51.522;7.020;2023-08-06T16:04:20;3.63;;;1.67;;
31638;SDS011;18248;51.522;7.020;2023-08-06T16:07:23;2.40;;;1.58;;
31638;SDS011;18248;51.522;7.020;2023-08-06T16:10:22;5.82;;;1.60;;
31638;SDS011;18248;51.522;7.020;2023-08-06T16:13:20;4.13;;;1.38;;
31638;SDS011;18248;51.522;7.020;2023-08-06T16:16:19;5.93;;;2.20;;
31638;SDS011;18248;51.522;7.020;2023-08-06T16:19:18;4.28;;;1.83;;
31638;SDS011;18248;51.522;7.020;2023-08-06T16:22:19;2.90;;;1.90;;
31638;SDS011;18248;51.522;7.020;2023-08-06T16:25:18;2.67;;;1.70;;
31638;SDS011;18248;51.522;7.020;2023-08-06T16:28:16;3.20;;;1.90;;
31638;SDS011;18248;51.522;7.020;2023-08-06T16:31:15;5.60;;;2.22;;
31638;SDS011;18248;51.522;7.020;2023-08-06T16:34:14;3.75;;;2.00;;
31638;SDS011;18248;51.522;7.020;2023-08-06T16:37:12;3.17;;;1.75;;
31638;SDS011;18248;51.522;7.020;2023-08-06T16:40:12;2.83;;;1.90;;
31638;SDS011;18248;51.522;7.020;2023-08-06T16:43:10;5.20;;;2.70;;
31638;SDS011;18248;51.522;7.020;2023-08-06T16:46:09;4.57;;;2.15;;
31638;SDS011;18248;51.522;7.020;2023-08-06T16:49:07;4.20;;;2.63;;
31638;SDS011;18248;51.522;7.020;2023-08-06T16:52:06;5.90;;;2.25;;
31638;SDS011;18248;51.522;7.020;2023-08-06T16:55:05;5.57;;;2.42;;
31638;SDS011;18248;51.522;7.020;2023-08-06T16:58:05;4.13;;;1.80;;
31638;SDS011;18248;51.522;7.020;2023-08-06T17:01:04;4.57;;;2.50;;
31638;SDS011;18248;51.522;7.020;2023-08-06T17:04:03;5.93;;;2.72;;
31638;SDS011;18248;51.522;7.020;2023-08-06T17:07:02;4.93;;;2.70;;
31638;SDS011;18248;51.522;7.020;2023-08-06T17:10:01;4.78;;;2.20;;
31638;SDS011;18248;51.522;7.020;2023-08-06T17:13:02;5.35;;;2.45;;
31638;SDS011;18248;51.522;7.020;2023-08-06T17:16:01;4.55;;;2.55;;
31638;SDS011;18248;51.522;7.020;2023-08-06T17:19:00;4.78;;;2.63;;
31638;SDS011;18248;51.522;7.020;2023-08-06T17:21:58;7.28;;;3.05;;
31638;SDS011;18248;51.522;7.020;2023-08-06T17:24:58;4.50;;;2.95;;
31638;SDS011;18248;51.522;7.020;2023-08-06T17:27:57;7.15;;;3.20;;
31638;SDS011;18248;51.522;7.020;2023-08-06T17:30:55;6.13;;;2.20;;
31638;SDS011;18248;51.522;7.020;2023-08-06T17:33:54;5.10;;;2.83;;
31638;SDS011;18248;51.522;7.020;2023-08-06T17:36:53;4.47;;;2.20;;
31638;SDS011;18248;51.522;7.020;2023-08-06T17:39:51;4.20;;;2.63;;
31638;SDS011;18248;51.522;7.020;2023-08-06T17:42:50;3.42;;;2.25;;
31638;SDS011;18248;51.522;7.020;2023-08-06T17:45:49;9.07;;;3.38;;
31638;SDS011;18248;51.522;7.020;2023-08-06T17:48:48;4.53;;;2.38;;
31638;SDS011;18248;51.522;7.020;2023-08-06T17:51:47;6.35;;;3.03;;
31638;SDS011;18248;51.522;7.020;2023-08-06T17:54:46;6.25;;;3.33;;
31638;SDS011;18248;51.522;7.020;2023-08-06T17:57:46;4.50;;;2.78;;
31638;SDS011;18248;51.522;7.020;2023-08-06T18:00:44;4.95;;;2.60;;
31638;SDS011;18248;51.522;7.020;2023-08-06T18:03:46;3.75;;;2.33;;
31638;SDS011;18248;51.522;7.020;2023-08-06T18:06:47;4.60;;;1.77;;
31638;SDS011;18248;51.522;7.020;2023-08-06T18:09:46;3.25;;;1.60;;
31638;SDS011;18248;51.522;7.020;2023-08-06T18:12:44;6.95;;;1.90;;
31638;SDS011;18248;51.522;7.020;2023-08-06T18:15:43;4.35;;;1.27;;
31638;SDS011;18248;51.522;7.020;2023-08-06T18:18:41;5.57;;;1.83;;